Time;durP1;ratioP1;P1;durP2;ratioP2;P2;SDS_P1;SDS_P2;PMS_P1;PMS_P2;Temp;Humidity;BMP_temperature;BMP_pressure;BME280_temperature;BME280_humidity;BME280_pressure;Samples;Min_cycle;Max_cycle;Signal;HPM_P1;HPM_P2
2022/11/05 00:10:47;;;;;;;30.10;26.80;;;;;;;11.07;100.00;98040.77;106348;1285;58854;-78
2022/11/05 00:19:05;;;;;;;26.90;24.00;;;;;;;11.02;100.00;98052.52;105665;1295;64800;-78
2022/11/05 00:27:20;;;;;;;20.90;18.80;;;;;;;10.93;100.00;98040.67;105616;1301;66836;-78
2022/11/05 00:29:47;;;;;;;17.60;15.70;;;;;;;10.89;100.00;98044.00;105668;1299;60841;-78
2022/11/05 00:32:14;;;;;;;12.00;10.90;;;;;;;10.85;100.00;98048.46;105634;1296;64930;-78
2022/11/05 00:34:40;;;;;;;9.70;8.70;;;;;;;10.78;100.00;98053.11;105646;1291;59132;-77
2022/11/05 00:37:07;;;;;;;7.00;6.40;;;;;;;10.71;100.00;98059.22;105453;1297;58939;-78
2022/11/05 00:39:33;;;;;;;5.30;4.80;;;;;;;10.63;100.00;98056.83;105637;1301;67051;-78
2022/11/05 00:45:00;;;;;;;6.30;4.40;;;;;;;10.49;100.00;98056.58;105627;1296;64881;-78
2022/11/05 00:50:13;;;;;;;4.10;3.70;;;;;;;10.40;100.00;98061.73;105987;1293;58821;-78
2022/11/05 00:52:55;;;;;;;5.10;4.30;;;;;;;10.37;100.00;98068.03;106344;1278;66992;-78
2022/11/05 00:55:33;;;;;;;3.90;3.50;;;;;;;10.35;100.00;98071.60;106344;1284;60822;-79
2022/11/05 00:58:02;;;;;;;4.00;3.30;;;;;;;10.32;100.00;98072.08;106350;1285;63073;-78
2022/11/05 01:00:30;;;;;;;3.10;2.90;;;;;;;10.30;100.00;98075.29;106341;1286;59039;-78
2022/11/05 01:03:03;;;;;;;3.70;3.00;;;;;;;10.26;100.00;98079.50;106360;1278;58941;-78
2022/11/05 01:05:31;;;;;;;8.00;4.30;;;;;;;10.22;100.00;98077.91;105829;1293;66855;-78
2022/11/05 01:07:59;;;;;;;3.60;3.30;;;;;;;10.17;100.00;98078.27;106055;1288;59688;-79
2022/11/05 01:10:26;;;;;;;3.60;3.30;;;;;;;10.12;100.00;98086.48;106348;1292;64864;-79
2022/11/05 01:12:53;;;;;;;3.70;3.40;;;;;;;10.08;100.00;98089.64;106350;1285;58961;-78
2022/11/05 01:15:22;;;;;;;4.10;3.50;;;;;;;10.04;100.00;98089.77;106312;1284;58816;-78
2022/11/05 01:17:50;;;;;;;4.60;3.10;;;;;;;10.01;100.00;98095.00;106325;1285;66756;-79
2022/11/05 01:20:17;;;;;;;3.50;3.20;;;;;;;9.97;100.00;98095.12;106333;1284;60752;-78
2022/11/05 01:22:44;;;;;;;3.50;3.20;;;;;;;9.93;100.00;98092.45;106322;1284;64924;-78
2022/11/05 01:25:10;;;;;;;3.40;3.10;;;;;;;9.89;100.00;98096.80;106347;1285;58958;-78
2022/11/05 01:27:38;;;;;;;4.70;3.70;;;;;;;9.85;100.00;98098.52;106341;1292;58813;-77
2022/11/05 01:30:06;;;;;;;3.30;3.00;;;;;;;9.82;100.00;98097.75;106331;1278;66777;-78
2022/11/05 01:32:35;;;;;;;4.00;3.60;;;;;;;9.78;100.00;98104.59;106357;1285;61109;-79
2022/11/05 01:35:03;;;;;;;4.10;3.70;;;;;;;9.74;100.00;98112.36;106323;1291;64757;-78
2022/11/05 01:37:30;;;;;;;6.60;3.80;;;;;;;9.70;100.00;98120.28;106346;1278;59200;-78
2022/11/05 01:39:57;;;;;;;4.40;4.00;;;;;;;9.67;100.00;98124.30;106334;1285;58729;-78
2022/11/05 01:42:25;;;;;;;3.80;3.50;;;;;;;9.63;100.00;98124.02;106332;1285;65774;-78
2022/11/05 01:44:56;;;;;;;4.20;3.70;;;;;;;9.60;100.00;98132.23;106502;1285;60924;-77
2022/11/05 01:47:55;;;;;;;3.80;3.40;;;;;;;9.57;100.00;98140.44;106356;1285;63772;-77
2022/11/05 01:50:30;;;;;;;4.70;4.30;;;;;;;9.55;100.00;98147.88;106337;1291;58985;-78
2022/11/05 01:53:23;;;;;;;4.90;4.50;;;;;;;9.53;100.00;98149.64;106336;1285;58920;-78
2022/11/05 01:56:00;;;;;;;4.70;4.30;;;;;;;9.51;100.00;98148.18;105654;1295;66855;-77
2022/11/05 01:58:33;;;;;;;5.10;4.70;;;;;;;9.49;100.00;98147.81;105587;1294;69044;-79
2022/11/05 02:01:00;;;;;;;5.50;5.10;;;;;;;9.47;100.00;98150.65;105653;1294;63897;-78
2022/11/05 02:03:27;;;;;;;5.50;5.10;;;;;;;9.45;100.00;98156.28;105640;1278;59195;-78
2022/11/05 02:05:56;;;;;;;5.00;4.60;;;;;;;9.43;100.00;98160.00;105556;1297;58932;-78
2022/11/05 02:08:35;;;;;;;5.60;4.90;;;;;;;9.42;100.00;98163.94;105646;1294;75132;-78
2022/11/05 02:11:02;;;;;;;5.10;4.70;;;;;;;9.42;100.00;98165.31;105522;1296;60061;-77
2022/11/05 02:13:29;;;;;;;5.40;4.50;;;;;;;9.43;100.00;98170.61;105656;1293;63936;-78
2022/11/05 02:16:05;;;;;;;5.10;4.70;;;;;;;9.43;100.00;98173.42;105663;1294;58978;-78
2022/11/05 02:19:00;;;;;;;5.20;4.70;;;;;;;9.44;100.00;98173.71;105655;1294;58640;-78
2022/11/05 02:21:48;;;;;;;4.30;3.90;;;;;;;9.43;100.00;98178.55;105659;1294;66789;-78
2022/11/05 02:24:32;;;;;;;4.40;4.00;;;;;;;9.42;100.00;98180.94;105648;1301;66758;-78
2022/11/05 02:27:04;;;;;;;4.20;3.90;;;;;;;9.41;100.00;98176.20;105665;1294;64201;-78
2022/11/05 02:29:46;;;;;;;5.40;4.90;;;;;;;9.40;100.00;98170.48;105453;1294;59043;-77
2022/11/05 02:32:15;;;;;;;4.60;4.30;;;;;;;9.37;100.00;98168.77;105680;1293;60698;-78
2022/11/05 02:35:01;;;;;;;5.30;4.90;;;;;;;9.34;100.00;98170.90;106306;1285;66770;-78
2022/11/05 02:37:30;;;;;;;5.00;4.60;;;;;;;9.32;100.00;98184.36;106342;1285;61241;-78
2022/11/05 02:40:07;;;;;;;5.50;5.00;;;;;;;9.30;100.00;98190.75;106304;1285;64799;-79
2022/11/05 02:42:57;;;;;;;5.50;5.10;;;;;;;9.27;100.00;98193.30;106330;1284;58979;-78
2022/11/05 02:45:41;;;;;;;4.90;4.50;;;;;;;9.23;100.00;98197.62;106305;1285;58970;-78
2022/11/05 02:48:32;;;;;;;4.80;4.40;;;;;;;9.20;100.00;98196.05;106092;1281;64834;-77
2022/11/05 02:51:17;;;;;;;4.60;4.30;;;;;;;9.18;100.00;98203.52;106290;1285;58973;-78
2022/11/05 02:53:52;;;;;;;4.50;4.10;;;;;;;9.15;100.00;98204.78;106306;1278;64259;-79
2022/11/05 02:56:23;;;;;;;4.40;4.10;;;;;;;9.13;100.00;98205.25;105796;1294;58946;-79
2022/11/05 02:58:50;;;;;;;4.60;4.30;;;;;;;9.12;100.00;98209.11;106296;1284;58923;-78
2022/11/05 03:01:16;;;;;;;4.60;4.20;;;;;;;9.10;100.00;98215.26;106352;1284;66876;-78
2022/11/05 03:03:49;;;;;;;3.50;3.30;;;;;;;9.10;100.00;98231.23;106314;1284;59820;-78
2022/11/05 03:06:15;;;;;;;3.80;3.60;;;;;;;9.09;100.00;98236.41;106314;1284;63875;-78
2022/11/05 03:09:10;;;;;;;3.50;3.30;;;;;;;9.08;100.00;98241.08;106033;1297;58879;-78
2022/11/05 03:12:14;;;;;;;3.80;3.50;;;;;;;9.08;100.00;98243.23;106322;1285;58731;-78
2022/11/05 03:14:58;;;;;;;3.10;2.90;;;;;;;9.07;100.00;98251.42;106347;1285;65705;-78
2022/11/05 03:17:43;;;;;;;3.10;2.90;;;;;;;9.07;100.00;98258.88;106390;1285;60765;-78
2022/11/05 03:20:28;;;;;;;3.50;3.20;;;;;;;9.06;100.00;98261.44;106349;1285;63771;-78
2022/11/05 03:23:08;;;;;;;4.30;3.30;;;;;;;9.05;100.00;98262.95;106343;1285;58944;-78
2022/11/05 03:25:42;;;;;;;4.30;3.20;;;;;;;9.04;100.00;98263.92;106343;1285;58915;-78
2022/11/05 03:28:10;;;;;;;3.30;3.10;;;;;;;9.02;100.00;98265.61;106311;1285;66786;-78
2022/11/05 03:30:40;;;;;;;2.80;2.60;;;;;;;9.01;100.00;98261.27;106362;1285;60901;-78
2022/11/05 03:33:14;;;;;;;;;;;;;;;9.00;100.00;98264.85;106370;1285;64903;-77
2022/11/05 03:35:47;;;;;;;5.40;3.10;;;;;;;8.99;100.00;98264.39;106332;1287;58948;-77
2022/11/05 03:38:20;;;;;;;3.20;2.90;;;;;;;8.98;100.00;98271.60;106352;1284;59186;-77
2022/11/05 03:40:51;;;;;;;3.20;2.70;;;;;;;8.97;100.00;98278.70;106109;1287;66839;-78
2022/11/05 03:43:21;;;;;;;3.20;2.90;;;;;;;8.97;100.00;98283.52;106359;1284;60750;-79
2022/11/05 03:46:17;;;;;;;2.90;2.70;;;;;;;8.97;100.00;98288.63;106095;1288;63766;-79
2022/11/05 03:48:47;;;;;;;3.00;2.80;;;;;;;8.98;100.00;98291.60;105659;1294;58999;-78
2022/11/05 03:51:34;;;;;;;3.50;3.20;;;;;;;9.00;100.00;98295.53;105672;1294;58988;-78
2022/11/05 03:54:03;;;;;;;2.70;2.50;;;;;;;9.03;100.00;98292.34;105665;1286;65960;-78
2022/11/05 03:56:39;;;;;;;2.70;2.50;;;;;;;9.04;100.00;98295.81;105654;1294;60894;-79
2022/11/05 03:59:08;;;;;;;2.40;2.30;;;;;;;9.06;100.00;98301.30;105646;1287;64791;-78
2022/11/05 04:01:38;;;;;;;2.30;2.10;;;;;;;9.08;100.00;98304.21;105652;1294;58989;-79
2022/11/05 04:04:06;;;;;;;2.30;2.20;;;;;;;9.08;100.00;98307.20;105627;1294;59088;-79
2022/11/05 04:14:49;;;;;;;2.90;2.30;;;;;;;9.09;100.00;98316.65;105574;1297;58938;-77
2022/11/05 04:17:16;;;;;;;2.70;2.50;;;;;;;9.11;100.00;98320.46;105670;1294;59009;-78
2022/11/05 04:25:19;;;;;;;2.90;2.70;;;;;;;9.11;100.00;98324.13;105757;1284;64888;-78
2022/11/05 04:27:46;;;;;;;2.80;2.50;;;;;;;9.10;100.00;98319.77;106352;1285;58917;-79
2022/11/05 04:30:18;;;;;;;2.90;2.60;;;;;;;9.10;100.00;98320.34;106101;1285;58927;-79
2022/11/05 04:33:02;;;;;;;2.70;2.60;;;;;;;9.11;100.00;98322.41;106337;1284;66190;-79
2022/11/05 04:35:32;;;;;;;3.40;2.90;;;;;;;9.11;100.00;98318.84;106364;1277;60040;-79
2022/11/05 04:37:59;;;;;;;3.20;3.00;;;;;;;9.11;100.00;98319.92;106383;1284;64190;-79
2022/11/05 04:40:26;;;;;;;3.30;3.00;;;;;;;9.10;100.00;98323.13;106345;1292;58871;-79
2022/11/05 04:42:56;;;;;;;2.60;2.40;;;;;;;9.10;100.00;98322.26;106362;1292;58817;-79
2022/11/05 04:45:24;;;;;;;3.10;2.50;;;;;;;9.10;100.00;98321.52;106346;1278;66786;-79
2022/11/05 04:47:51;;;;;;;3.50;3.20;;;;;;;9.09;100.00;98315.96;106029;1287;60904;-79
2022/11/05 04:50:18;;;;;;;3.00;2.80;;;;;;;9.08;100.00;98315.17;106055;1291;65013;-79
2022/11/05 04:52:44;;;;;;;3.20;3.00;;;;;;;9.05;100.00;98314.27;106041;1291;59065;-79
2022/11/05 04:55:11;;;;;;;3.20;3.00;;;;;;;9.03;100.00;98316.40;105860;1289;58934;-79
2022/11/05 04:57:38;;;;;;;3.90;3.50;;;;;;;9.01;100.00;98314.04;106076;1282;66895;-79
2022/11/05 05:00:06;;;;;;;5.10;4.10;;;;;;;9.00;100.00;98317.13;106081;1288;60789;-79
2022/11/05 05:02:33;;;;;;;4.00;3.70;;;;;;;8.99;100.00;98317.19;105842;1292;63743;-79
2022/11/05 05:05:00;;;;;;;4.40;4.10;;;;;;;8.98;100.00;98316.07;106045;1296;58917;-79
2022/11/05 05:07:27;;;;;;;4.70;4.30;;;;;;;8.97;100.00;98322.51;106057;1288;58996;-79
2022/11/05 05:09:54;;;;;;;5.00;4.00;;;;;;;8.95;100.00;98326.33;106081;1289;66829;-79
2022/11/05 05:12:21;;;;;;;4.60;4.20;;;;;;;8.93;100.00;98326.11;106067;1288;59670;-79
2022/11/05 05:14:48;;;;;;;5.10;4.70;;;;;;;8.89;100.00;98330.34;105969;1291;75049;-78
2022/11/05 05:17:15;;;;;;;4.70;4.20;;;;;;;8.87;100.00;98337.02;106031;1282;59270;-78
2022/11/05 05:22:27;;;;;;;5.80;4.80;;;;;;;8.84;100.00;98344.84;106279;1285;66848;-79
2022/11/05 05:24:55;;;;;;;5.40;4.90;;;;;;;8.83;100.00;98344.59;106111;1289;61095;-78
2022/11/05 05:27:24;;;;;;;5.80;5.30;;;;;;;8.82;100.00;98341.10;106309;1286;64827;-78
2022/11/05 05:29:52;;;;;;;4.90;4.50;;;;;;;8.81;100.00;98346.45;106256;1281;58951;-78
2022/11/05 05:32:19;;;;;;;5.90;5.40;;;;;;;8.79;100.00;98351.39;106326;1278;58842;-78
2022/11/05 05:34:45;;;;;;;5.00;4.60;;;;;;;8.79;100.00;98358.45;106338;1282;65855;-78
2022/11/05 05:37:12;;;;;;;5.30;4.90;;;;;;;8.79;100.00;98367.87;106139;1281;68476;-77
2022/11/05 05:39:38;;;;;;;5.40;5.00;;;;;;;8.79;100.00;98370.18;106315;1279;62692;-77
2022/11/05 05:42:05;;;;;;;5.40;4.90;;;;;;;8.78;100.00;98375.39;106279;1292;58887;-77
2022/11/05 05:44:32;;;;;;;6.90;6.20;;;;;;;8.76;100.00;98381.70;106300;1286;59646;-79
2022/11/05 05:46:58;;;;;;;6.40;5.90;;;;;;;8.74;100.00;98386.98;106299;1285;67060;-78
2022/11/05 05:49:25;;;;;;;6.50;6.00;;;;;;;8.73;100.00;98387.55;106116;1285;66943;-78
2022/11/05 05:51:51;;;;;;;5.90;5.40;;;;;;;8.73;100.00;98392.01;106278;1285;64993;-78
2022/11/05 05:54:18;;;;;;;5.90;5.30;;;;;;;8.72;100.00;98398.80;106293;1278;58887;-78
2022/11/05 05:56:45;;;;;;;8.20;6.60;;;;;;;8.71;100.00;98402.95;106339;1286;58911;-78
2022/11/05 05:59:11;;;;;;;7.70;6.90;;;;;;;8.69;100.00;98406.63;106307;1285;66944;-78
2022/11/05 06:01:38;;;;;;;5.80;5.20;;;;;;;8.67;100.00;98407.34;106333;1291;59642;-78
2022/11/05 06:04:05;;;;;;;5.90;5.50;;;;;;;8.66;100.00;98415.00;106326;1285;65185;-78
2022/11/05 06:06:32;;;;;;;5.60;5.00;;;;;;;8.65;100.00;98420.55;106318;1285;58962;-79
2022/11/05 06:08:58;;;;;;;5.70;5.20;;;;;;;8.64;100.00;98426.64;106308;1278;59039;-79
2022/11/05 06:11:25;;;;;;;5.50;5.10;;;;;;;8.62;100.00;98427.31;106321;1285;65744;-79
2022/11/05 06:13:52;;;;;;;5.90;5.40;;;;;;;8.60;100.00;98431.14;106339;1285;60762;-77
2022/11/05 06:16:19;;;;;;;6.40;5.90;;;;;;;8.59;100.00;98435.70;106337;1285;64793;-79
2022/11/05 06:18:46;;;;;;;6.10;5.60;;;;;;;8.56;100.00;98445.95;106346;1278;58875;-78
2022/11/05 06:21:15;;;;;;;6.70;6.10;;;;;;;8.55;100.00;98456.48;106350;1285;58972;-79
2022/11/05 06:23:44;;;;;;;8.30;7.40;;;;;;;8.54;100.00;98456.86;106098;1289;66959;-79
2022/11/05 06:26:13;;;;;;;9.50;8.60;;;;;;;8.53;100.00;98462.11;106291;1278;58935;-79
2022/11/05 06:28:41;;;;;;;8.70;8.00;;;;;;;8.51;100.00;98463.27;106333;1286;64707;-78
2022/11/05 06:31:09;;;;;;;7.60;7.00;;;;;;;8.51;100.00;98464.86;106248;1285;59228;-77
2022/11/05 06:33:36;;;;;;;7.50;6.90;;;;;;;8.51;100.00;98467.34;106341;1285;58956;-79
2022/11/05 06:36:04;;;;;;;9.10;7.60;;;;;;;8.51;100.00;98470.69;106354;1284;67303;-78
2022/11/05 06:38:32;;;;;;;22.10;16.70;;;;;;;8.52;100.00;98476.85;106382;1284;60748;-78
2022/11/05 06:41:00;;;;;;;10.50;7.90;;;;;;;8.52;100.00;98480.02;106066;1294;64865;-78
2022/11/05 06:43:28;;;;;;;7.80;7.00;;;;;;;8.53;100.00;98480.64;106064;1289;59001;-78
2022/11/05 06:45:55;;;;;;;8.50;6.80;;;;;;;8.54;100.00;98483.30;106271;1278;59137;-78
2022/11/05 06:48:22;;;;;;;8.10;7.30;;;;;;;8.54;100.00;98481.48;106338;1278;66966;-78
2022/11/05 06:50:48;;;;;;;8.90;8.20;;;;;;;8.55;100.00;98484.64;106332;1284;59718;-78
2022/11/05 06:53:15;;;;;;;9.40;8.40;;;;;;;8.54;100.00;98493.02;106088;1285;64753;-79
2022/11/05 06:55:43;;;;;;;12.10;10.90;;;;;;;8.53;100.00;98507.73;106244;1279;58905;-78
2022/11/05 06:58:10;;;;;;;11.80;10.70;;;;;;;8.53;100.00;98510.21;106361;1276;58684;-79
2022/11/05 07:00:36;;;;;;;14.60;13.10;;;;;;;8.54;100.00;98515.67;106349;1284;64334;-77
2022/11/05 07:03:09;;;;;;;13.40;12.10;;;;;;;8.52;100.00;98516.13;106292;1287;60786;-77
2022/11/05 07:05:45;;;;;;;12.90;11.30;;;;;;;8.52;100.00;98516.65;106323;1278;65081;-78
2022/11/05 07:08:11;;;;;;;12.90;11.70;;;;;;;8.52;100.00;98515.75;106370;1285;58829;-79
2022/11/05 07:10:38;;;;;;;12.20;11.00;;;;;;;8.52;100.00;98513.66;106108;1288;58906;-79
2022/11/05 07:13:05;;;;;;;14.60;12.80;;;;;;;8.52;100.00;98516.71;106365;1278;75282;-79
2022/11/05 07:15:31;;;;;;;13.70;12.30;;;;;;;8.52;100.00;98517.23;106396;1278;60886;-79
2022/11/05 07:17:59;;;;;;;14.20;12.80;;;;;;;8.54;100.00;98527.02;106355;1286;65299;-80
2022/11/05 07:20:26;;;;;;;15.20;13.80;;;;;;;8.54;100.00;98532.63;106383;1278;58910;-80
2022/11/05 07:23:04;;;;;;;16.50;14.90;;;;;;;8.55;100.00;98534.17;106096;1285;58978;-79
2022/11/05 07:25:32;;;;;;;15.40;13.80;;;;;;;8.55;100.00;98534.14;106351;1285;65875;-79
2022/11/05 07:27:59;;;;;;;17.90;16.20;;;;;;;8.55;100.00;98538.11;106310;1284;59698;-79
2022/11/05 07:30:26;;;;;;;18.00;16.40;;;;;;;8.55;100.00;98540.05;106371;1285;73223;-79
2022/11/05 07:32:54;;;;;;;17.60;15.90;;;;;;;8.56;100.00;98543.01;106350;1285;58952;-78
2022/11/05 07:35:20;;;;;;;17.70;16.10;;;;;;;8.58;100.00;98547.64;106371;1278;58831;-79
2022/11/05 07:37:49;;;;;;;20.70;18.80;;;;;;;8.59;100.00;98543.51;106250;1289;66889;-79
2022/11/05 07:40:20;;;;;;;24.50;21.80;;;;;;;8.60;100.00;98543.25;106384;1285;60807;-79
2022/11/05 07:42:55;;;;;;;23.40;21.10;;;;;;;8.60;100.00;98544.48;106035;1289;65223;-79
2022/11/05 07:45:23;;;;;;;24.90;22.30;;;;;;;8.60;100.00;98548.20;106154;1293;58787;-79
2022/11/05 07:47:52;;;;;;;20.10;18.20;;;;;;;8.61;100.00;98549.92;106382;1278;58889;-79
2022/11/05 07:50:21;;;;;;;18.10;16.20;;;;;;;8.59;100.00;98554.98;106385;1278;73967;-79
2022/11/05 07:52:49;;;;;;;16.00;14.50;;;;;;;8.58;100.00;98556.86;106362;1284;59963;-78
2022/11/05 07:55:17;;;;;;;14.90;13.40;;;;;;;8.57;100.00;98557.23;106340;1278;73492;-78
2022/11/05 07:57:48;;;;;;;14.90;13.60;;;;;;;8.59;100.00;98562.63;106357;1285;59225;-78
2022/11/05 08:00:20;;;;;;;12.30;11.10;;;;;;;8.58;100.00;98561.65;106340;1286;58862;-78
2022/11/05 08:03:01;;;;;;;12.40;11.20;;;;;;;8.56;100.00;98567.77;106079;1284;64418;-78
2022/11/05 08:05:29;;;;;;;13.80;12.50;;;;;;;8.56;100.00;98568.80;106376;1285;61025;-78
2022/11/05 08:07:56;;;;;;;14.30;12.90;;;;;;;8.54;100.00;98572.46;106267;1281;64986;-78
2022/11/05 08:10:23;;;;;;;17.20;15.10;;;;;;;8.52;100.00;98569.80;106392;1285;58887;-78
2022/11/05 08:12:54;;;;;;;15.90;14.20;;;;;;;8.51;100.00;98570.39;106373;1285;59086;-78
2022/11/05 08:15:22;;;;;;;14.60;13.20;;;;;;;8.50;100.00;98574.52;106355;1278;65990;-79
2022/11/05 08:17:49;;;;;;;16.80;13.50;;;;;;;8.51;100.00;98576.62;106262;1284;59692;-77
2022/11/05 08:20:16;;;;;;;15.40;13.80;;;;;;;8.52;100.00;98575.80;106357;1284;64781;-78
2022/11/05 08:22:43;;;;;;;24.50;16.40;;;;;;;8.53;100.00;98577.51;106367;1286;58925;-78
2022/11/05 08:25:11;;;;;;;23.10;15.90;;;;;;;8.53;100.00;98579.98;106367;1286;59124;-79
2022/11/05 08:27:39;;;;;;;29.30;19.50;;;;;;;8.53;100.00;98581.40;106352;1285;67264;-78
2022/11/05 08:30:07;;;;;;;26.20;19.00;;;;;;;8.54;100.00;98583.29;106345;1285;61277;-79
2022/11/05 08:32:34;;;;;;;21.40;18.30;;;;;;;8.54;100.00;98591.81;106370;1285;62430;-79
2022/11/05 08:35:01;;;;;;;22.50;20.20;;;;;;;8.54;100.00;98590.01;106370;1285;58893;-78
2022/11/05 08:37:28;;;;;;;26.30;23.50;;;;;;;8.54;100.00;98590.70;106349;1278;58767;-77
2022/11/05 08:39:54;;;;;;;26.40;23.40;;;;;;;8.55;100.00;98597.56;106349;1285;66961;-78
2022/11/05 08:42:21;;;;;;;28.20;24.20;;;;;;;8.56;100.00;98598.23;106117;1288;60704;-79
2022/11/05 08:44:48;;;;;;;25.20;22.50;;;;;;;8.57;100.00;98602.20;106090;1288;64663;-79
2022/11/05 08:47:14;;;;;;;26.50;23.30;;;;;;;8.60;100.00;98601.50;106362;1285;59262;-78
2022/11/05 08:49:41;;;;;;;33.00;27.70;;;;;;;8.61;100.00;98602.52;106115;1288;59004;-78
2022/11/05 08:52:07;;;;;;;31.10;28.10;;;;;;;8.60;100.00;98603.66;106354;1278;65809;-79
2022/11/05 08:54:34;;;;;;;35.10;29.60;;;;;;;8.59;100.00;98603.73;106366;1285;60845;-77
2022/11/05 08:57:01;;;;;;;34.10;30.40;;;;;;;8.59;100.00;98601.96;106357;1286;64823;-78
2022/11/05 08:59:28;;;;;;;36.10;30.30;;;;;;;8.58;100.00;98602.85;106347;1288;58806;-78
2022/11/05 09:01:55;;;;;;;33.20;28.10;;;;;;;8.59;100.00;98609.88;106074;1290;58901;-78
2022/11/05 09:04:22;;;;;;;28.30;25.20;;;;;;;8.59;100.00;98610.42;106345;1278;67134;-78
2022/11/05 09:06:48;;;;;;;29.70;26.70;;;;;;;8.60;100.00;98616.71;106342;1284;59720;-78
2022/11/05 09:09:15;;;;;;;25.30;20.40;;;;;;;8.63;100.00;98617.77;106347;1285;64746;-79
2022/11/05 09:11:42;;;;;;;20.10;17.50;;;;;;;8.66;100.00;98616.38;106357;1285;59096;-78
2022/11/05 09:14:09;;;;;;;18.10;16.40;;;;;;;8.66;100.00;98614.21;106356;1285;58980;-79
2022/11/05 09:16:36;;;;;;;18.90;16.90;;;;;;;8.67;100.00;98617.34;106363;1278;67077;-78
2022/11/05 09:19:03;;;;;;;22.40;19.70;;;;;;;8.71;100.00;98617.81;106368;1278;60925;-78
2022/11/05 09:21:30;;;;;;;20.00;18.10;;;;;;;8.74;100.00;98619.38;106212;1271;63783;-79
2022/11/05 09:23:57;;;;;;;19.80;17.90;;;;;;;8.77;100.00;98621.67;106138;1288;58881;-78
2022/11/05 09:26:23;;;;;;;18.30;16.40;;;;;;;8.77;100.00;98620.72;106342;1285;58804;-79
2022/11/05 09:28:50;;;;;;;19.20;17.20;;;;;;;8.78;100.00;98625.09;106081;1280;66837;-78
2022/11/05 09:31:16;;;;;;;21.10;18.40;;;;;;;8.78;100.00;98625.81;106374;1286;67776;-78
2022/11/05 09:33:43;;;;;;;21.00;18.80;;;;;;;8.79;100.00;98628.59;106348;1278;73218;-79
2022/11/05 09:36:10;;;;;;;19.40;17.40;;;;;;;8.81;100.00;98632.18;106352;1279;59171;-78
2022/11/05 09:38:37;;;;;;;21.70;19.40;;;;;;;8.82;100.00;98630.90;106129;1286;58942;-77
2022/11/05 09:41:21;;;;;;;21.40;19.30;;;;;;;8.84;100.00;98628.27;106227;1279;73171;-78
2022/11/05 09:43:52;;;;;;;20.80;18.30;;;;;;;8.88;100.00;98630.33;106367;1277;61176;-78
2022/11/05 09:46:28;;;;;;;21.00;18.30;;;;;;;8.89;100.00;98630.61;106344;1286;63792;-78
2022/11/05 09:49:03;;;;;;;21.10;18.50;;;;;;;8.91;100.00;98633.34;106334;1292;58899;-78
2022/11/05 09:51:31;;;;;;;21.40;19.20;;;;;;;8.94;100.00;98632.38;106329;1285;58853;-77
2022/11/05 09:53:59;;;;;;;20.70;18.70;;;;;;;9.01;100.00;98638.14;106362;1286;66774;-78
2022/11/05 09:56:32;;;;;;;19.00;17.10;;;;;;;9.09;100.00;98637.61;106347;1285;60803;-77
2022/11/05 09:59:13;;;;;;;18.40;16.50;;;;;;;9.15;100.00;98641.45;106365;1285;64880;-77
2022/11/05 10:01:42;;;;;;;17.50;15.70;;;;;;;9.20;100.00;98643.11;106372;1285;58830;-78
2022/11/05 10:04:15;;;;;;;19.20;17.20;;;;;;;9.22;100.00;98640.95;106379;1285;59004;-78
2022/11/05 10:06:51;;;;;;;18.80;16.90;;;;;;;9.27;100.00;98642.08;106359;1285;65954;-77
2022/11/05 10:09:30;;;;;;;17.70;15.80;;;;;;;9.32;100.00;98644.96;106343;1285;67903;-79
2022/11/05 10:12:03;;;;;;;17.40;15.60;;;;;;;9.34;100.00;98646.94;106362;1285;64768;-78
2022/11/05 10:14:37;;;;;;;15.70;14.30;;;;;;;9.37;100.00;98654.55;106346;1277;58983;-78
2022/11/05 10:17:24;;;;;;;17.30;15.50;;;;;;;9.35;100.00;98657.47;106348;1285;58853;-78
2022/11/05 10:19:57;;;;;;;18.00;16.20;;;;;;;9.33;100.00;98665.64;106366;1285;66944;-78
2022/11/05 10:22:24;;;;;;;15.90;14.20;;;;;;;9.30;100.00;98665.66;106359;1278;59698;-79
2022/11/05 10:24:52;;;;;;;15.50;13.90;;;;;;;9.28;100.00;98663.98;106323;1292;65044;-78
2022/11/05 10:27:23;;;;;;;16.70;15.10;;;;;;;9.27;100.00;98665.88;106031;1288;59054;-78
2022/11/05 10:29:50;;;;;;;17.20;15.40;;;;;;;9.24;100.00;98665.30;106091;1288;59164;-79
2022/11/05 10:32:38;;;;;;;17.90;16.10;;;;;;;9.22;100.00;98662.06;106341;1285;67055;-77
2022/11/05 10:35:29;;;;;;;16.00;13.60;;;;;;;9.23;100.00;98661.84;106357;1284;60166;-78
2022/11/05 10:37:57;;;;;;;14.70;13.10;;;;;;;9.22;100.00;98666.89;106359;1285;63793;-77
2022/11/05 10:40:45;;;;;;;15.20;13.60;;;;;;;9.22;100.00;98664.94;106379;1278;58786;-79
2022/11/05 10:43:17;;;;;;;14.30;13.00;;;;;;;9.22;100.00;98665.42;106364;1285;58968;-79
2022/11/05 10:46:31;;;;;;;15.60;14.00;;;;;;;9.22;100.00;98663.13;106386;1285;66842;-79
2022/11/05 10:49:35;;;;;;;14.60;13.10;;;;;;;9.21;100.00;98674.17;106352;1278;59736;-79
2022/11/05 10:52:20;;;;;;;14.20;12.90;;;;;;;9.20;100.00;98685.05;106374;1276;63818;-78
2022/11/05 10:54:51;;;;;;;18.20;16.40;;;;;;;9.21;100.00;98688.19;106364;1282;59159;-79
2022/11/05 10:57:35;;;;;;;18.20;15.90;;;;;;;9.22;100.00;98685.48;106371;1285;58864;-79
2022/11/05 11:00:23;;;;;;;14.70;13.30;;;;;;;9.21;100.00;98678.05;106351;1285;66786;-78
2022/11/05 11:02:53;;;;;;;17.70;15.70;;;;;;;9.22;100.00;98677.32;106373;1278;60882;-78
2022/11/05 11:05:39;;;;;;;16.50;14.90;;;;;;;9.23;100.00;98678.67;106357;1285;72675;-79
2022/11/05 11:08:09;;;;;;;18.80;16.90;;;;;;;9.21;100.00;98685.53;106120;1278;58985;-79
2022/11/05 11:10:57;;;;;;;18.30;16.40;;;;;;;9.19;100.00;98687.82;106356;1285;58703;-79
2022/11/05 11:13:27;;;;;;;18.20;16.40;;;;;;;9.17;100.00;98681.56;106106;1289;65789;-79
2022/11/05 11:16:11;;;;;;;16.90;15.40;;;;;;;9.17;100.00;98679.75;106243;1284;59650;-78
2022/11/05 11:18:41;;;;;;;16.90;15.20;;;;;;;9.18;100.00;98680.40;106019;1285;64917;-78
2022/11/05 11:21:16;;;;;;;19.50;17.70;;;;;;;9.17;100.00;98690.04;106008;1291;58863;-78
2022/11/05 11:23:53;;;;;;;23.90;21.40;;;;;;;9.17;100.00;98698.20;106354;1286;58842;-79
2022/11/05 11:26:20;;;;;;;25.40;22.90;;;;;;;9.17;100.00;98700.89;106289;1288;64349;-79
2022/11/05 11:28:57;;;;;;;25.60;23.10;;;;;;;9.19;100.00;98700.02;106379;1285;59887;-78
2022/11/05 11:31:27;;;;;;;30.30;27.20;;;;;;;9.25;100.00;98700.88;106349;1285;63975;-79
2022/11/05 11:33:59;;;;;;;29.00;25.80;;;;;;;9.29;100.00;98700.98;106373;1285;59149;-78
2022/11/05 11:36:34;;;;;;;22.50;20.00;;;;;;;9.31;100.00;98702.80;106377;1285;58927;-79
2022/11/05 11:39:04;;;;;;;26.80;22.10;;;;;;;9.33;100.00;98699.48;106365;1278;66852;-79
2022/11/05 11:41:36;;;;;;;20.20;18.20;;;;;;;9.33;100.00;98703.55;106086;1284;61082;-79
2022/11/05 11:44:14;;;;;;;22.40;19.80;;;;;;;9.33;100.00;98701.80;106457;1285;64789;-79
2022/11/05 11:46:44;;;;;;;19.10;17.20;;;;;;;9.31;100.00;98705.81;106378;1284;59290;-79
2022/11/05 11:49:49;;;;;;;18.20;16.40;;;;;;;9.29;100.00;98703.65;106360;1285;58928;-78
2022/11/05 11:52:23;;;;;;;16.50;14.80;;;;;;;9.27;100.00;98704.67;106363;1285;66979;-78
2022/11/05 11:54:51;;;;;;;19.20;16.40;;;;;;;9.25;100.00;98699.80;106365;1284;60997;-79
2022/11/05 11:57:26;;;;;;;18.00;16.20;;;;;;;9.24;100.00;98702.02;106368;1284;65191;-79
2022/11/05 11:59:54;;;;;;;18.20;15.80;;;;;;;9.23;100.00;98705.41;106333;1286;58865;-79
2022/11/05 12:02:43;;;;;;;17.40;15.40;;;;;;;9.25;100.00;98710.46;106372;1285;59089;-79
2022/11/05 12:05:15;;;;;;;22.90;18.50;;;;;;;9.26;100.00;98714.69;106370;1285;66766;-79
2022/11/05 12:07:52;;;;;;;16.00;14.10;;;;;;;9.25;100.00;98716.48;106138;1285;59770;-78
2022/11/05 12:10:40;;;;;;;15.90;14.20;;;;;;;9.22;100.00;98720.92;106265;1289;64767;-79
2022/11/05 12:13:22;;;;;;;16.30;14.70;;;;;;;9.19;100.00;98715.65;106365;1285;58970;-79
2022/11/05 12:15:53;;;;;;;14.30;12.80;;;;;;;9.19;100.00;98718.25;106331;1285;59218;-78
2022/11/05 12:18:41;;;;;;;13.60;12.50;;;;;;;9.21;100.00;98722.73;106360;1281;66820;-78
2022/11/05 12:21:25;;;;;;;16.40;14.90;;;;;;;9.22;100.00;98727.09;106357;1285;68773;-78